Time;durP1;ratioP1;P1;durP2;ratioP2;P2;SDS_P1;SDS_P2;PMS_P1;PMS_P2;Temp;Humidity;BMP_temperature;BMP_pressure;BME280_temperature;BME280_humidity;BME280_pressure;Samples;Min_cycle;Max_cycle;Signal;HPM_P1;HPM_P2
2022/04/01 00:02:16;;;;;;;7.45;6.05;;;4.80;39.10;;;;;;5126900;27;34773;-75
2022/04/01 00:04:42;;;;;;;8.90;6.40;;;4.80;39.10;;;;;;5127867;27;34450;-75
2022/04/01 00:07:08;;;;;;;8.27;6.03;;;4.80;39.00;;;;;;5108739;27;36456;-75
2022/04/01 00:09:37;;;;;;;8.75;6.60;;;4.80;39.00;;;;;;5108967;27;34202;-75
2022/04/01 00:12:05;;;;;;;11.07;6.57;;;4.80;39.00;;;;;;5127471;27;34149;-75
2022/04/01 00:14:32;;;;;;;8.45;6.55;;;4.80;39.00;;;;;;5109366;27;34612;-75
2022/04/01 00:16:58;;;;;;;8.27;6.53;;;4.70;38.90;;;;;;5127060;27;34089;-75
2022/04/01 00:19:25;;;;;;;8.40;6.18;;;4.70;38.90;;;;;;5127084;27;34205;-75
2022/04/01 00:21:52;;;;;;;7.15;6.30;;;4.70;39.00;;;;;;5108633;27;34187;-75
2022/04/01 00:24:17;;;;;;;7.85;5.88;;;4.70;39.00;;;;;;5127389;27;34266;-75
2022/04/01 00:26:45;;;;;;;8.88;7.07;;;4.70;39.20;;;;;;5126728;27;34966;-75
2022/04/01 00:29:15;;;;;;;8.57;6.80;;;4.70;39.10;;;;;;5107848;27;34534;-75
2022/04/01 00:31:45;;;;;;;8.30;7.00;;;4.70;39.00;;;;;;5108794;27;34207;-75
2022/04/01 00:34:18;;;;;;;10.45;6.57;;;4.70;39.00;;;;;;5107710;27;34569;-75
2022/04/01 00:36:47;;;;;;;8.48;6.43;;;4.70;38.90;;;;;;5104800;28;36211;-75
2022/04/01 00:39:15;;;;;;;10.15;7.30;;;4.70;38.90;;;;;;5086748;27;34446;-75
2022/04/01 00:41:44;;;;;;;9.57;6.95;;;4.70;38.90;;;;;;5091148;27;34065;-75
2022/04/01 00:44:17;;;;;;;9.05;6.45;;;4.70;38.90;;;;;;5091770;27;34418;-75
2022/04/01 00:46:45;;;;;;;8.73;6.47;;;4.70;38.90;;;;;;5108509;27;35684;-75
2022/04/01 00:49:11;;;;;;;9.82;6.85;;;4.80;39.00;;;;;;5108047;27;34160;-76
2022/04/01 00:51:40;;;;;;;8.80;7.85;;;4.70;39.10;;;;;;5108590;27;34255;-75
2022/04/01 00:54:06;;;;;;;9.25;6.88;;;4.70;39.10;;;;;;5108091;27;34582;-75
2022/04/01 00:56:34;;;;;;;10.77;7.82;;;4.80;39.20;;;;;;5125965;27;34332;-75
2022/04/01 00:59:02;;;;;;;9.32;7.38;;;4.80;39.20;;;;;;5108096;27;34360;-75
2022/04/01 01:01:31;;;;;;;9.95;7.78;;;4.80;39.20;;;;;;5091349;27;34216;-75
2022/04/01 01:04:01;;;;;;;9.98;7.32;;;4.80;39.10;;;;;;5091014;27;34086;-75
2022/04/01 01:06:27;;;;;;;10.60;7.57;;;4.80;39.00;;;;;;5107087;27;35862;-75
2022/04/01 01:08:54;;;;;;;9.80;7.18;;;4.80;38.90;;;;;;5107929;27;33748;-75
2022/04/01 01:11:20;;;;;;;10.10;7.50;;;4.80;38.90;;;;;;5125884;27;34085;-75
2022/04/01 01:13:46;;;;;;;10.38;7.60;;;4.80;38.90;;;;;;5108683;27;34353;-75
2022/04/01 01:16:12;;;;;;;11.60;7.03;;;4.80;39.10;;;;;;5107138;27;35948;-76
2022/04/01 01:18:38;;;;;;;10.30;7.68;;;4.80;39.00;;;;;;5126352;27;34271;-75
2022/04/01 01:21:04;;;;;;;10.73;7.18;;;4.80;39.10;;;;;;5126268;27;34340;-75
2022/04/01 01:23:31;;;;;;;9.10;7.05;;;4.80;39.10;;;;;;5125718;27;34473;-75
2022/04/01 01:25:57;;;;;;;10.05;7.13;;;4.80;39.10;;;;;;5090449;27;35771;-75
2022/04/01 01:28:24;;;;;;;10.70;7.97;;;4.80;39.10;;;;;;5107608;27;34228;-75
2022/04/01 01:30:50;;;;;;;10.38;7.78;;;4.80;39.20;;;;;;5090327;27;34179;-75
2022/04/01 01:33:20;;;;;;;11.68;7.60;;;4.80;39.10;;;;;;5107295;27;34494;-75
2022/04/01 01:35:46;;;;;;;10.40;7.25;;;4.80;39.20;;;;;;5107358;27;36147;-75
2022/04/01 01:38:16;;;;;;;8.68;6.80;;;4.80;39.20;;;;;;5125389;27;34104;-75
2022/04/01 01:40:42;;;;;;;11.95;7.82;;;4.80;39.10;;;;;;5107037;27;34055;-75
2022/04/01 01:43:08;;;;;;;10.57;7.53;;;4.80;39.20;;;;;;5090941;27;34375;-75
2022/04/01 01:45:34;;;;;;;10.07;7.60;;;4.80;39.20;;;;;;5107243;27;35700;-75
2022/04/01 01:48:00;;;;;;;10.75;7.65;;;4.80;39.20;;;;;;5107977;27;34294;-75
2022/04/01 01:55:48;;;;;;;11.15;7.75;;;4.80;39.40;;;;;;5109256;27;34699;-76
2022/04/01 01:58:15;;;;;;;10.02;7.90;;;4.80;39.40;;;;;;5125282;27;34187;-75
2022/04/01 02:00:42;;;;;;;10.77;7.60;;;4.90;39.40;;;;;;5087493;28;34085;-75
2022/04/01 02:03:10;;;;;;;10.02;7.80;;;4.90;39.40;;;;;;5122594;27;34070;-75
2022/04/01 02:05:36;;;;;;;9.95;7.32;;;4.80;39.30;;;;;;5106968;27;36323;-75
2022/04/01 02:08:05;;;;;;;10.50;7.97;;;4.80;39.30;;;;;;5107126;27;34075;-76
2022/04/01 02:10:31;;;;;;;12.10;8.65;;;4.80;39.30;;;;;;5092461;27;34042;-75
2022/04/01 02:12:58;;;;;;;12.82;7.75;;;4.80;39.30;;;;;;5110772;27;34527;-75
2022/04/01 02:15:25;;;;;;;9.60;7.38;;;4.80;39.40;;;;;;5093849;27;35861;-76
2022/04/01 02:17:51;;;;;;;11.77;8.18;;;4.80;39.40;;;;;;5110846;27;34118;-75
2022/04/01 02:20:17;;;;;;;11.70;8.40;;;4.80;39.40;;;;;;5128729;27;34220;-76
2022/04/01 02:22:44;;;;;;;11.52;8.30;;;4.80;39.30;;;;;;5129548;27;34102;-75
2022/04/01 02:25:11;;;;;;;12.05;8.55;;;4.80;39.30;;;;;;5128869;27;35043;-75
2022/04/01 02:27:38;;;;;;;10.65;7.45;;;4.80;39.40;;;;;;5110668;27;33986;-75
2022/04/01 02:30:10;;;;;;;11.93;7.82;;;4.80;39.40;;;;;;5110335;27;34032;-75
2022/04/01 02:32:39;;;;;;;9.48;7.20;;;4.70;39.40;;;;;;5110997;27;34038;-75
2022/04/01 02:35:07;;;;;;;9.95;7.35;;;4.80;39.70;;;;;;5093807;27;35609;-75
2022/04/01 02:37:33;;;;;;;12.13;7.95;;;4.80;39.70;;;;;;5111248;27;34325;-76
2022/04/01 02:40:00;;;;;;;9.27;6.82;;;4.80;39.70;;;;;;5110693;27;34187;-76
2022/04/01 02:42:26;;;;;;;9.55;7.20;;;4.80;39.80;;;;;;5110106;27;34032;-75
2022/04/01 02:44:52;;;;;;;10.98;8.00;;;4.80;39.70;;;;;;5128374;27;35510;-75
2022/04/01 02:47:18;;;;;;;10.95;8.13;;;4.80;39.70;;;;;;5093267;27;34122;-76
2022/04/01 02:49:44;;;;;;;12.48;7.35;;;4.80;39.70;;;;;;5110037;27;34053;-75
2022/04/01 02:52:10;;;;;;;10.93;7.82;;;4.80;39.80;;;;;;5093043;27;34462;-75
2022/04/01 02:54:36;;;;;;;12.43;8.00;;;4.80;39.80;;;;;;5110000;27;36318;-75
2022/04/01 02:57:02;;;;;;;10.07;7.43;;;4.80;39.80;;;;;;5093097;27;34155;-75
2022/04/01 02:59:29;;;;;;;11.07;7.88;;;4.80;39.80;;;;;;5110301;27;34099;-75
2022/04/01 03:01:55;;;;;;;13.82;9.23;;;4.80;39.90;;;;;;5093268;27;34528;-75
2022/04/01 03:04:22;;;;;;;11.48;8.10;;;4.80;39.90;;;;;;5127795;27;34327;-76
2022/04/01 03:06:49;;;;;;;11.38;8.15;;;4.80;39.80;;;;;;5128655;27;34175;-75
2022/04/01 03:09:15;;;;;;;9.48;7.35;;;4.80;39.80;;;;;;5092860;27;34018;-75
2022/04/01 03:11:42;;;;;;;9.88;7.60;;;4.80;39.80;;;;;;5128333;27;34093;-75
2022/04/01 03:14:11;;;;;;;12.18;8.13;;;4.80;39.90;;;;;;5110183;27;35606;-76
2022/04/01 03:16:38;;;;;;;11.63;8.10;;;4.80;40.10;;;;;;5128159;27;34177;-75
2022/04/01 03:19:08;;;;;;;12.73;8.70;;;4.90;40.10;;;;;;5109968;27;34313;-75
2022/04/01 03:21:38;;;;;;;12.00;8.80;;;4.80;40.10;;;;;;5109956;27;34562;-75
2022/04/01 03:24:09;;;;;;;12.55;8.52;;;4.90;40.20;;;;;;5110441;27;34482;-75
2022/04/01 03:26:35;;;;;;;11.07;7.90;;;4.80;40.00;;;;;;5093487;27;34037;-75
2022/04/01 03:29:02;;;;;;;13.10;9.45;;;4.90;40.10;;;;;;5092244;27;34083;-76
2022/04/01 03:31:28;;;;;;;12.75;8.90;;;4.90;40.20;;;;;;5109341;27;34452;-75
2022/04/01 03:33:56;;;;;;;15.02;9.27;;;4.90;40.10;;;;;;5109653;27;35669;-75
2022/04/01 03:36:22;;;;;;;11.00;8.52;;;4.90;40.20;;;;;;5109389;27;34456;-75
2022/04/01 03:38:48;;;;;;;12.65;8.60;;;4.90;40.20;;;;;;5109221;27;34199;-75
2022/04/01 03:41:14;;;;;;;12.07;8.88;;;4.90;40.20;;;;;;5109546;27;34144;-75
2022/04/01 03:43:40;;;;;;;13.52;9.80;;;4.80;40.00;;;;;;5109244;27;35747;-75
2022/04/01 03:46:10;;;;;;;12.32;8.88;;;4.90;40.20;;;;;;5092426;27;34103;-75
2022/04/01 03:48:42;;;;;;;12.45;9.10;;;4.80;40.20;;;;;;5109962;27;34181;-76
2022/04/01 03:51:11;;;;;;;12.18;8.98;;;4.80;40.30;;;;;;5109840;27;34073;-76
2022/04/01 03:53:41;;;;;;;11.75;8.20;;;4.90;40.30;;;;;;5106316;28;34463;-75
2022/04/01 03:56:08;;;;;;;12.65;8.88;;;4.80;40.30;;;;;;5089291;28;34115;-76
2022/04/01 03:58:35;;;;;;;12.00;8.70;;;4.80;40.30;;;;;;5092227;27;34261;-75
2022/04/01 04:01:04;;;;;;;11.88;9.25;;;4.80;40.20;;;;;;5109093;27;34293;-75
2022/04/01 04:03:32;;;;;;;12.30;9.23;;;4.80;40.40;;;;;;5108815;27;35755;-75
2022/04/01 04:05:59;;;;;;;12.60;8.45;;;4.80;40.40;;;;;;5109805;27;34071;-76
2022/04/01 04:08:26;;;;;;;12.02;9.02;;;4.70;40.50;;;;;;5108809;27;34131;-76
2022/04/01 04:10:53;;;;;;;13.93;9.40;;;4.70;40.40;;;;;;5109327;27;34167;-76
2022/04/01 04:13:25;;;;;;;13.35;9.35;;;4.60;40.70;;;;;;5108719;27;35810;-76
2022/04/01 04:16:04;;;;;;;15.60;10.13;;;4.60;40.70;;;;;;5110448;27;34171;-76
2022/04/01 04:18:41;;;;;;;12.98;8.98;;;4.60;41.70;;;;;;5089068;27;34526;-75
2022/04/01 04:21:15;;;;;;;13.30;9.65;;;4.60;41.00;;;;;;5092833;27;34663;-76
2022/04/01 04:23:46;;;;;;;13.43;10.07;;;4.60;41.60;;;;;;5075141;27;35775;-75
2022/04/01 04:26:15;;;;;;;13.65;9.77;;;4.50;41.40;;;;;;5091001;27;34271;-75
2022/04/01 04:28:48;;;;;;;14.52;9.60;;;4.60;41.00;;;;;;5092101;27;33983;-75
2022/04/01 04:31:14;;;;;;;13.93;9.93;;;4.60;41.10;;;;;;5091883;27;34217;-75
2022/04/01 04:33:44;;;;;;;14.45;9.13;;;4.60;40.80;;;;;;5089996;27;36064;-75
2022/04/01 04:36:14;;;;;;;13.93;9.35;;;4.60;40.70;;;;;;5090981;27;34108;-75
2022/04/01 04:38:43;;;;;;;13.30;9.48;;;4.60;40.50;;;;;;5126782;27;34093;-75
2022/04/01 04:41:09;;;;;;;13.57;10.70;;;4.60;40.40;;;;;;5091371;27;34551;-75
2022/04/01 04:43:38;;;;;;;15.02;10.57;;;4.60;40.60;;;;;;5107920;27;36626;-75
2022/04/01 04:46:06;;;;;;;14.13;10.30;;;4.60;40.50;;;;;;5126513;27;34390;-75
2022/04/01 04:48:34;;;;;;;14.43;9.88;;;4.60;40.70;;;;;;5107930;27;33978;-76
2022/04/01 04:51:03;;;;;;;14.95;9.80;;;4.70;40.70;;;;;;5108466;27;34059;-76
2022/04/01 04:53:34;;;;;;;15.10;10.40;;;4.60;41.00;;;;;;5107860;27;35679;-76
2022/04/01 04:56:02;;;;;;;14.18;9.60;;;4.60;40.90;;;;;;5091666;27;34163;-75
2022/04/01 04:58:43;;;;;;;15.43;10.20;;;4.60;40.80;;;;;;5107557;27;34496;-75
2022/04/01 05:01:38;;;;;;;14.15;9.52;;;4.60;41.40;;;;;;5126997;27;34280;-76
2022/04/01 05:04:39;;;;;;;13.45;10.15;;;4.70;42.30;;;;;;5079296;27;35583;-76
2022/04/01 05:07:40;;;;;;;14.05;9.88;;;4.60;41.70;;;;;;5126327;27;34093;-76
2022/04/01 05:10:18;;;;;;;15.32;10.15;;;4.60;42.10;;;;;;5095609;27;34159;-75
2022/04/01 05:12:57;;;;;;;13.57;9.75;;;4.60;40.90;;;;;;5107740;27;34559;-75
2022/04/01 05:15:28;;;;;;;15.70;10.43;;;4.60;41.30;;;;;;5073143;27;36738;-76
2022/04/01 05:18:15;;;;;;;13.02;9.40;;;4.60;40.90;;;;;;5090820;27;34210;-76
2022/04/01 05:21:00;;;;;;;15.90;10.38;;;4.60;41.60;;;;;;5125698;27;33992;-75
2022/04/01 05:23:58;;;;;;;14.52;10.23;;;4.70;41.30;;;;;;5090327;27;34069;-75
2022/04/01 05:26:38;;;;;;;14.98;10.15;;;4.70;41.40;;;;;;5107099;27;36412;-75
2022/04/01 05:29:07;;;;;;;13.35;10.35;;;4.70;40.80;;;;;;5109203;27;34159;-75
2022/04/01 05:31:46;;;;;;;15.25;10.40;;;4.70;40.70;;;;;;5106848;27;34091;-75
2022/04/01 05:34:35;;;;;;;13.43;9.77;;;4.70;41.20;;;;;;5090326;27;34384;-76
2022/04/01 05:37:02;;;;;;;15.38;10.75;;;4.70;41.20;;;;;;5106872;27;36038;-75
2022/04/01 05:39:29;;;;;;;13.07;10.02;;;4.70;40.70;;;;;;5125336;27;34089;-75
2022/04/01 05:41:56;;;;;;;16.50;11.02;;;4.70;40.60;;;;;;5107648;27;34009;-75
2022/04/01 05:44:24;;;;;;;14.68;10.35;;;4.80;40.70;;;;;;5107214;27;34083;-76
2022/04/01 05:46:53;;;;;;;16.20;11.07;;;4.80;40.70;;;;;;5107758;27;36657;-77
2022/04/01 05:49:19;;;;;;;16.90;10.52;;;4.80;40.70;;;;;;5125959;27;34009;-76
2022/04/01 05:51:47;;;;;;;12.93;9.45;;;4.80;40.70;;;;;;5107642;27;34271;-75
2022/04/01 05:54:19;;;;;;;13.85;10.80;;;4.80;40.80;;;;;;5124893;27;34342;-75
2022/04/01 05:56:46;;;;;;;15.20;10.23;;;4.80;40.70;;;;;;5125441;27;34372;-76
2022/04/01 05:59:12;;;;;;;13.07;9.95;;;4.80;40.80;;;;;;5090466;27;34341;-76
2022/04/01 06:01:57;;;;;;;12.07;9.43;;;4.80;40.70;;;;;;5089428;27;34156;-76
2022/04/01 06:04:49;;;;;;;14.65;10.73;;;4.80;41.40;;;;;;5090024;27;34264;-75
2022/04/01 06:07:38;;;;;;;14.05;9.95;;;4.80;41.00;;;;;;5091637;27;35843;-75
2022/04/01 06:10:09;;;;;;;15.98;9.88;;;4.80;41.70;;;;;;5093117;27;34053;-75
2022/04/01 06:12:50;;;;;;;16.67;11.38;;;4.90;40.80;;;;;;5090853;27;34211;-75
2022/04/01 06:15:26;;;;;;;16.70;10.10;;;4.90;41.10;;;;;;5089684;27;34276;-76
2022/04/01 06:18:15;;;;;;;15.73;10.55;;;4.90;40.70;;;;;;5106818;27;34192;-75
2022/04/01 06:20:44;;;;;;;15.13;10.30;;;5.00;41.40;;;;;;5092932;27;34448;-75
2022/04/01 06:23:34;;;;;;;15.02;10.48;;;5.00;40.60;;;;;;5106557;27;34198;-75
2022/04/01 06:26:00;;;;;;;15.15;10.20;;;5.00;40.90;;;;;;5106803;27;34104;-75
2022/04/01 06:28:34;;;;;;;15.05;10.63;;;5.10;40.50;;;;;;5106400;27;36394;-76
2022/04/01 06:31:05;;;;;;;15.88;9.73;;;5.10;40.60;;;;;;5124815;27;34205;-75
2022/04/01 06:33:47;;;;;;;16.35;10.90;;;5.20;40.60;;;;;;5106228;27;34079;-75
2022/04/01 06:36:17;;;;;;;15.65;11.07;;;5.20;40.80;;;;;;5124285;27;34283;-75
2022/04/01 06:39:07;;;;;;;17.27;11.20;;;5.30;40.80;;;;;;5089406;27;35902;-75
2022/04/01 06:41:43;;;;;;;16.75;11.20;;;5.30;40.90;;;;;;5089239;27;34365;-76
2022/04/01 06:44:10;;;;;;;14.63;10.40;;;5.40;41.00;;;;;;5106468;27;34136;-75
2022/04/01 06:46:37;;;;;;;15.38;11.15;;;5.40;40.30;;;;;;5106244;27;34293;-75
2022/04/01 06:49:08;;;;;;;15.10;11.35;;;5.40;40.50;;;;;;5124179;27;34329;-75
2022/04/01 06:51:37;;;;;;;16.30;11.60;;;5.40;40.20;;;;;;5105864;27;34113;-75
2022/04/01 06:54:03;;;;;;;17.38;11.20;;;5.40;40.00;;;;;;5124279;27;34234;-75
2022/04/01 06:56:29;;;;;;;15.88;11.30;;;5.50;40.10;;;;;;5108192;27;34965;-75
2022/04/01 06:58:55;;;;;;;14.02;10.65;;;5.50;40.80;;;;;;5092749;27;35740;-75
2022/04/01 07:01:21;;;;;;;15.18;11.15;;;5.50;40.20;;;;;;5092401;27;34088;-75
2022/04/01 07:03:47;;;;;;;14.13;10.20;;;5.60;40.00;;;;;;5109314;27;34140;-75
2022/04/01 07:06:13;;;;;;;14.18;10.38;;;5.60;40.10;;;;;;5109925;27;34443;-75
2022/04/01 07:08:39;;;;;;;16.35;11.07;;;5.70;39.90;;;;;;5092202;27;36463;-75
2022/04/01 07:11:05;;;;;;;15.70;10.82;;;5.80;39.80;;;;;;5109844;27;34043;-75
2022/04/01 07:13:32;;;;;;;13.95;10.07;;;5.80;39.50;;;;;;5127397;27;34231;-75
2022/04/01 07:15:58;;;;;;;15.68;9.55;;;5.90;39.60;;;;;;5127833;27;34125;-75
2022/04/01 07:18:29;;;;;;;17.23;10.93;;;5.90;39.40;;;;;;5110074;27;34392;-75
2022/04/01 07:20:55;;;;;;;13.52;9.50;;;5.90;39.50;;;;;;5127610;27;34379;-75
2022/04/01 07:23:21;;;;;;;16.23;10.45;;;5.90;39.10;;;;;;5109141;27;34221;-75
2022/04/01 07:25:47;;;;;;;12.88;9.75;;;6.00;39.30;;;;;;5109734;27;33948;-75
2022/04/01 07:28:13;;;;;;;13.32;9.35;;;6.00;39.20;;;;;;5108438;27;36297;-75
2022/04/01 07:30:39;;;;;;;18.85;12.10;;;6.00;39.20;;;;;;5127648;27;34395;-75
2022/04/01 07:33:05;;;;;;;14.60;11.48;;;6.00;39.10;;;;;;5127282;27;34062;-75
2022/04/01 07:35:34;;;;;;;14.88;10.20;;;6.00;39.20;;;;;;5127126;27;34389;-75
2022/04/01 07:38:00;;;;;;;13.38;8.90;;;6.10;39.20;;;;;;5108976;27;35844;-75
2022/04/01 07:40:26;;;;;;;11.82;8.63;;;6.20;39.00;;;;;;5108946;27;34276;-76
2022/04/01 07:42:53;;;;;;;12.63;8.75;;;6.20;38.80;;;;;;5108767;27;33984;-75
2022/04/01 07:45:20;;;;;;;11.13;8.75;;;6.30;38.80;;;;;;5109729;27;34377;-76
2022/04/01 07:47:47;;;;;;;11.00;8.02;;;6.30;38.70;;;;;;5114726;27;35073;-75
2022/04/01 07:50:16;;;;;;;10.07;8.23;;;6.30;38.70;;;;;;5070948;28;34071;-75
2022/04/01 07:52:43;;;;;;;9.48;7.57;;;6.30;38.70;;;;;;5094122;27;34134;-75
2022/04/01 07:55:11;;;;;;;9.25;7.55;;;6.20;38.30;;;;;;5092438;27;34363;-75
2022/04/01 07:57:38;;;;;;;11.90;7.63;;;6.30;38.40;;;;;;5091734;27;35733;-75
2022/04/01 08:00:06;;;;;;;10.23;7.32;;;6.30;38.60;;;;;;5108946;27;34229;-76
2022/04/01 08:02:32;;;;;;;8.02;6.47;;;6.20;38.30;;;;;;5106225;27;34031;-75
2022/04/01 08:04:58;;;;;;;9.80;6.50;;;6.30;38.20;;;;;;5108994;27;33964;-78
2022/04/01 08:07:24;;;;;;;8.30;6.70;;;6.30;38.40;;;;;;5106960;27;35693;-77
2022/04/01 08:09:52;;;;;;;9.52;6.53;;;6.20;38.20;;;;;;5127885;27;34014;-75
2022/04/01 08:12:18;;;;;;;9.52;6.93;;;6.20;38.20;;;;;;5091031;27;34282;-75
2022/04/01 08:14:44;;;;;;;8.88;6.78;;;6.20;38.20;;;;;;5108274;27;34179;-75
2022/04/01 08:17:12;;;;;;;7.32;5.97;;;6.20;38.30;;;;;;5091771;27;36804;-75
2022/04/01 08:19:39;;;;;;;8.32;6.13;;;6.20;38.00;;;;;;5108886;27;34154;-76
2022/04/01 08:22:05;;;;;;;8.85;6.43;;;6.20;37.90;;;;;;5127168;27;34066;-76
2022/04/01 08:24:31;;;;;;;7.32;6.03;;;6.20;38.00;;;;;;5108480;27;34483;-75
2022/04/01 08:27:00;;;;;;;8.02;6.18;;;6.20;37.80;;;;;;5108372;27;35665;-76
2022/04/01 08:29:27;;;;;;;8.10;6.47;;;6.20;37.80;;;;;;5126907;27;34125;-75
2022/04/01 08:31:54;;;;;;;7.95;6.28;;;6.20;37.80;;;;;;5125775;27;34189;-76
2022/04/01 08:34:20;;;;;;;9.48;6.10;;;6.20;37.80;;;;;;5108930;27;33996;-76
2022/04/01 08:36:46;;;;;;;7.75;6.05;;;6.10;37.30;;;;;;5108261;27;36536;-75
2022/04/01 08:39:12;;;;;;;8.13;6.03;;;6.10;37.70;;;;;;5105636;27;34204;-75
2022/04/01 08:41:38;;;;;;;7.03;5.28;;;6.00;37.70;;;;;;5109151;27;34303;-76
2022/04/01 08:44:05;;;;;;;7.75;5.82;;;6.00;37.50;;;;;;5091724;27;34139;-76
2022/04/01 08:46:31;;;;;;;7.05;5.78;;;6.00;37.40;;;;;;5091503;27;36095;-75
2022/04/01 08:48:57;;;;;;;8.15;6.22;;;6.00;37.60;;;;;;5091530;27;34203;-76
2022/04/01 08:51:23;;;;;;;6.63;5.53;;;6.00;37.50;;;;;;5108155;27;34000;-75
2022/04/01 08:53:49;;;;;;;8.05;6.10;;;5.90;37.50;;;;;;5108566;27;34080;-76
2022/04/01 08:56:19;;;;;;;7.80;5.72;;;5.90;37.30;;;;;;5107946;27;36521;-76
2022/04/01 08:58:46;;;;;;;8.38;6.30;;;5.90;37.30;;;;;;5108448;27;34193;-76
2022/04/01 09:01:13;;;;;;;8.35;6.13;;;5.80;37.30;;;;;;5107926;27;34128;-76
2022/04/01 09:03:41;;;;;;;7.60;5.68;;;5.80;37.30;;;;;;5108515;27;34156;-76
2022/04/01 09:06:08;;;;;;;7.10;5.45;;;5.80;37.30;;;;;;5108131;27;35781;-75
2022/04/01 09:08:37;;;;;;;7.40;6.05;;;5.70;37.30;;;;;;5091594;27;34263;-75
2022/04/01 09:11:12;;;;;;;8.95;6.15;;;5.60;37.40;;;;;;5108267;27;34124;-75
2022/04/01 09:13:51;;;;;;;7.60;5.63;;;5.60;37.30;;;;;;5075021;27;34137;-76
2022/04/01 09:16:36;;;;;;;8.70;6.10;;;5.60;37.60;;;;;;5108885;27;34929;-75
2022/04/01 09:19:06;;;;;;;10.52;6.10;;;5.60;36.70;;;;;;5125199;27;34275;-76
2022/04/01 09:21:36;;;;;;;7.57;6.05;;;5.60;37.30;;;;;;5091623;27;34169;-75
2022/04/01 09:24:03;;;;;;;7.60;6.80;;;5.50;37.40;;;;;;5126525;27;34341;-76
2022/04/01 09:26:32;;;;;;;8.32;5.97;;;5.60;37.30;;;;;;5074047;27;35682;-75
2022/04/01 09:28:59;;;;;;;7.80;6.03;;;5.50;37.30;;;;;;5091442;27;34173;-75
2022/04/01 09:31:31;;;;;;;7.63;6.35;;;5.50;37.40;;;;;;5107764;27;34147;-75
2022/04/01 09:33:57;;;;;;;8.55;6.05;;;5.50;37.70;;;;;;5126356;27;34072;-75
2022/04/01 09:36:33;;;;;;;8.27;6.47;;;5.60;37.30;;;;;;5090556;27;36473;-75
2022/04/01 09:39:16;;;;;;;7.35;5.90;;;5.60;37.30;;;;;;5108033;27;34081;-75
2022/04/01 09:41:46;;;;;;;8.35;6.03;;;5.70;37.00;;;;;;5108290;27;34373;-75
2022/04/01 09:44:20;;;;;;;6.85;5.88;;;5.70;36.90;;;;;;5090597;27;34083;-75
2022/04/01 09:46:56;;;;;;;7.85;5.78;;;5.70;36.80;;;;;;5107369;27;35721;-75
2022/04/01 09:49:35;;;;;;;7.10;5.93;;;5.80;36.70;;;;;;5107135;27;34233;-75
2022/04/01 09:52:02;;;;;;;6.97;5.68;;;5.70;35.70;;;;;;5074461;27;34139;-75
2022/04/01 09:54:27;;;;;;;9.80;5.63;;;5.80;36.70;;;;;;5125862;27;33975;-75
2022/04/01 09:56:55;;;;;;;7.03;5.45;;;5.80;36.30;;;;;;5106916;27;35873;-75
2022/04/01 09:59:24;;;;;;;7.82;5.55;;;5.80;36.20;;;;;;5126383;27;34131;-75
2022/04/01 10:01:50;;;;;;;7.07;5.97;;;5.80;36.30;;;;;;5125771;27;34220;-76
2022/04/01 10:04:17;;;;;;;8.32;6.15;;;5.80;36.30;;;;;;5089935;27;34274;-76
2022/04/01 10:06:43;;;;;;;7.70;6.03;;;5.90;36.30;;;;;;5090793;27;36043;-75
2022/04/01 10:09:10;;;;;;;6.13;5.15;;;5.90;36.40;;;;;;5107177;27;34019;-75
2022/04/01 10:11:40;;;;;;;6.78;5.68;;;5.80;36.00;;;;;;5107786;27;34180;-75
2022/04/01 10:14:11;;;;;;;7.45;5.60;;;5.80;36.00;;;;;;5085821;28;34332;-75
2022/04/01 10:16:41;;;;;;;7.32;5.75;;;5.80;35.90;;;;;;5070823;28;36567;-75
2022/04/01 10:19:12;;;;;;;8.55;6.05;;;5.80;35.90;;;;;;5104837;28;34508;-75
2022/04/01 10:21:43;;;;;;;5.65;5.05;;;5.80;35.30;;;;;;5086557;28;34333;-76
2022/04/01 10:24:20;;;;;;;7.53;6.07;;;5.70;35.50;;;;;;5114823;27;34144;-75
2022/04/01 10:27:10;;;;;;;7.28;5.60;;;5.70;35.60;;;;;;5091323;27;36873;-75
2022/04/01 10:29:37;;;;;;;9.38;5.65;;;5.70;36.10;;;;;;5075178;27;34247;-75
2022/04/01 10:32:27;;;;;;;7.68;5.97;;;5.70;35.70;;;;;;5092504;27;34111;-75
2022/04/01 10:34:55;;;;;;;7.28;4.95;;;5.70;36.00;;;;;;5110828;27;34555;-76
2022/04/01 10:37:23;;;;;;;7.93;5.55;;;5.70;35.40;;;;;;5128973;27;35024;-75
2022/04/01 10:39:51;;;;;;;9.18;5.07;;;5.70;35.60;;;;;;5110562;27;34202;-75
2022/04/01 10:42:17;;;;;;;7.68;4.97;;;5.70;35.70;;;;;;5093379;27;34210;-76
2022/04/01 10:44:48;;;;;;;6.47;5.15;;;5.80;35.30;;;;;;5111402;27;34219;-76
2022/04/01 10:47:14;;;;;;;5.60;4.63;;;6.00;35.50;;;;;;5093159;27;35625;-75
2022/04/01 10:52:22;;;;;;;5.05;4.47;;;6.40;34.70;;;;;;5112893;27;34186;-75
2022/04/01 10:55:06;;;;;;;7.03;4.95;;;6.60;34.30;;;;;;5127459;27;34400;-75
2022/04/01 10:57:37;;;;;;;4.72;3.85;;;6.60;34.10;;;;;;5109535;27;36313;-75
2022/04/01 11:00:08;;;;;;;4.50;4.10;;;6.60;33.00;;;;;;5092743;27;34690;-76
2022/04/01 11:02:34;;;;;;;4.43;3.92;;;6.50;33.10;;;;;;5109939;27;34125;-76
2022/04/01 11:05:20;;;;;;;5.93;4.60;;;6.40;33.60;;;;;;5128496;27;34142;-76
2022/04/01 11:07:46;;;;;;;7.20;4.53;;;6.40;34.00;;;;;;5095428;27;35777;-75
2022/04/01 11:10:25;;;;;;;5.68;4.75;;;6.30;33.70;;;;;;5093306;27;34080;-76
2022/04/01 11:12:52;;;;;;;6.32;4.40;;;6.20;32.90;;;;;;5128255;27;34071;-75
2022/04/01 11:15:25;;;;;;;5.05;4.57;;;6.10;33.20;;;;;;5128520;27;34223;-75
2022/04/01 11:18:00;;;;;;;5.82;4.40;;;6.00;33.40;;;;;;5092456;27;36217;-76
2022/04/01 11:20:27;;;;;;;5.40;4.30;;;5.90;33.30;;;;;;5093229;27;34479;-76
2022/04/01 11:23:04;;;;;;;5.18;4.47;;;5.80;33.50;;;;;;5110119;27;34250;-76
2022/04/01 11:25:50;;;;;;;4.53;4.13;;;5.70;32.00;;;;;;5092707;27;34385;-75
2022/04/01 11:28:17;;;;;;;6.45;4.25;;;5.60;32.60;;;;;;5108562;27;36654;-75
2022/04/01 11:31:02;;;;;;;5.07;3.88;;;5.70;34.00;;;;;;5109417;27;34449;-75
2022/04/01 11:33:28;;;;;;;5.90;4.13;;;5.70;33.70;;;;;;5095256;27;34508;-76
2022/04/01 11:35:57;;;;;;;4.03;3.63;;;5.60;33.90;;;;;;5128021;27;34319;-75
2022/04/01 11:38:25;;;;;;;4.75;3.80;;;5.60;33.70;;;;;;5108892;27;36500;-76
2022/04/01 11:40:56;;;;;;;4.30;3.90;;;5.50;33.50;;;;;;5109197;27;34025;-75
2022/04/01 11:43:24;;;;;;;7.47;3.80;;;5.50;33.30;;;;;;5109029;27;34164;-77
2022/04/01 11:45:57;;;;;;;4.57;3.80;;;5.50;33.60;;;;;;5128057;27;34438;-76
2022/04/01 11:48:33;;;;;;;4.38;3.58;;;5.40;33.10;;;;;;5075969;27;35745;-76
2022/04/01 11:51:04;;;;;;;4.93;3.83;;;5.40;32.90;;;;;;5108594;27;34170;-75
2022/04/01 11:53:35;;;;;;;5.32;4.10;;;5.40;33.40;;;;;;5091665;27;34151;-75
2022/04/01 11:56:02;;;;;;;4.22;3.75;;;5.40;33.50;;;;;;5108839;27;34076;-75
2022/04/01 11:58:36;;;;;;;4.60;3.83;;;5.40;33.80;;;;;;5090822;27;35949;-75
2022/04/01 12:01:03;;;;;;;5.00;3.72;;;5.40;33.10;;;;;;5091244;27;34052;-75
2022/04/01 12:03:30;;;;;;;4.22;3.80;;;5.30;33.60;;;;;;5108031;27;34170;-74
2022/04/01 12:08:41;;;;;;;5.63;4.25;;;5.30;33.10;;;;;;5127253;27;34145;-75
2022/04/01 12:08:43;;;;;;;5.32;3.75;;;5.30;33.10;;;;;;5111477;27;34361;-75
2022/04/01 12:11:09;;;;;;;4.55;3.60;;;5.20;33.20;;;;;;5126323;27;34276;-75
2022/04/01 12:13:42;;;;;;;6.05;3.47;;;5.20;33.40;;;;;;5107999;27;34162;-75
2022/04/01 12:16:08;;;;;;;4.28;3.63;;;5.20;33.10;;;;;;5117466;27;34047;-75
2022/04/01 12:18:36;;;;;;;4.47;4.05;;;5.10;32.70;;;;;;5126488;27;35235;-75
2022/04/01 12:21:02;;;;;;;4.85;3.70;;;5.10;33.40;;;;;;5092983;27;34193;-76
2022/04/01 12:23:32;;;;;;;4.88;4.32;;;5.10;33.20;;;;;;5109419;27;34092;-76
2022/04/01 12:25:59;;;;;;;4.63;4.03;;;5.00;33.00;;;;;;5091671;27;34077;-76
2022/04/01 12:28:36;;;;;;;5.32;4.15;;;5.00;33.10;;;;;;5108473;27;35863;-75
2022/04/01 12:31:02;;;;;;;5.22;4.10;;;5.10;33.20;;;;;;5107998;27;33949;-76
2022/04/01 12:33:33;;;;;;;7.07;4.22;;;5.00;33.10;;;;;;5091530;27;34444;-76
2022/04/01 12:36:02;;;;;;;4.53;3.70;;;5.00;33.10;;;;;;5108593;27;34281;-75
2022/04/01 12:38:31;;;;;;;4.65;3.72;;;5.00;32.90;;;;;;5108241;27;35078;-75
2022/04/01 12:41:00;;;;;;;5.05;4.03;;;5.00;33.20;;;;;;5074440;27;34251;-75
2022/04/01 12:43:44;;;;;;;5.35;4.05;;;5.00;33.40;;;;;;5126755;27;34477;-76
2022/04/01 12:46:16;;;;;;;4.70;3.88;;;5.10;32.70;;;;;;5126545;27;34396;-76
2022/04/01 12:48:48;;;;;;;8.82;4.32;;;5.00;32.90;;;;;;5108210;27;35946;-75
2022/04/01 12:51:34;;;;;;;4.72;4.20;;;5.00;33.10;;;;;;5074462;27;34144;-75
2022/04/01 12:54:06;;;;;;;4.10;3.70;;;5.00;33.30;;;;;;5107525;27;34166;-76
2022/04/01 12:56:34;;;;;;;4.93;3.95;;;5.00;33.30;;;;;;5127534;27;34568;-76
2022/04/01 12:59:10;;;;;;;4.35;3.60;;;5.00;33.00;;;;;;5074962;27;36049;-75
2022/04/01 13:01:39;;;;;;;4.43;3.78;;;5.00;32.80;;;;;;5091979;27;34198;-74
2022/04/01 13:04:08;;;;;;;5.20;3.70;;;4.90;32.80;;;;;;5090628;27;34479;-76
2022/04/01 13:06:34;;;;;;;4.22;3.83;;;4.90;32.90;;;;;;5091119;27;34505;-75
2022/04/01 13:09:07;;;;;;;4.18;3.67;;;4.80;32.80;;;;;;5108603;27;35536;-75
2022/04/01 13:11:36;;;;;;;5.13;4.10;;;4.80;33.10;;;;;;5091500;27;35345;-75
2022/04/01 13:14:05;;;;;;;5.50;3.78;;;4.80;33.00;;;;;;5091546;27;34246;-76